XA29 weather

Heart Hospital of San Antonio Heliport
San Antonio, Texas, United States

Public forecast

Using degrees Fahrenheit for public forecast. Weather courtesy of forecast.io.

METAR (pilot weather report)

Closest report is San Antonio International Airport, 4.7 nm (8.8 km) ENE. Retrieved 2019/09/17 04:51 UTC (41 minutes ago):

KSAT 170451Z 11007KT 10SM FEW080 FEW250 27/19 A2996 RMK AO2 SLP126 T02720194

TAF (pilot weather forecast)

Forecast is more than 12 hours old.

Closest forecast is San Antonio International Airport, 4.7 nm (8.8 km) ENE. Retrieved 2019/09/16 00:34 UTC (1 day ago):

TAF KSAT 162332Z 1700/1806 09010KT P6SM FEW080 SCT250 FM170700 04005KT P6SM SCT022 SCT050 SCT250 TEMPO 1710/1714 BKN022 FM171900 05008KT P6SM VCSH BKN050 FM180200 09007KT P6SM SCT022 BKN050